createdAt,value
2019-05-09T00:00:39.682Z,13.63
2019-05-09T00:03:07.519Z,13.64
2019-05-09T00:05:35.273Z,13.69
2019-05-09T00:08:03.599Z,13.62
2019-05-09T00:10:39.539Z,13.38
2019-05-09T00:13:03.275Z,13.31
2019-05-09T00:15:33.090Z,13.10
2019-05-09T00:18:00.844Z,13.12
2019-05-09T00:20:38.480Z,13.12
2019-05-09T00:23:06.309Z,13.08
2019-05-09T00:25:34.251Z,13.05
2019-05-09T00:28:04.161Z,13.06
2019-05-09T00:30:50.030Z,13.12
2019-05-09T00:33:23.446Z,13.11
2019-05-09T00:35:53.319Z,13.22
2019-05-09T00:38:23.959Z,13.14
2019-05-09T00:40:58.401Z,13.18
2019-05-09T00:43:23.664Z,13.18
2019-05-09T00:46:10.712Z,13.08
2019-05-09T00:48:53.332Z,13.07
2019-05-09T00:51:23.299Z,13.12
2019-05-09T00:53:51.018Z,13.16
2019-05-09T00:56:19.516Z,13.20
2019-05-09T00:58:47.348Z,13.16
2019-05-09T01:01:15.232Z,13.35
2019-05-09T01:03:43.272Z,13.39
2019-05-09T01:06:13.203Z,13.27
2019-05-09T01:08:41.061Z,13.18
2019-05-09T01:11:12.384Z,13.27
2019-05-09T01:13:38.702Z,13.22
2019-05-09T01:16:06.681Z,13.36
2019-05-09T01:18:34.983Z,13.45
2019-05-09T01:21:03.990Z,13.47
2019-05-09T01:23:34.254Z,13.44
2019-05-09T01:26:03.871Z,13.34
2019-05-09T01:28:33.931Z,13.39
2019-05-09T01:31:03.951Z,13.28
2019-05-09T01:33:43.804Z,13.37
2019-05-09T01:36:11.595Z,13.26
2019-05-09T01:38:39.365Z,13.26
2019-05-09T01:41:07.327Z,13.31
2019-05-09T01:43:35.087Z,13.30
2019-05-09T01:46:04.015Z,13.21
2019-05-09T01:48:33.904Z,13.01
2019-05-09T01:51:03.207Z,13.15
2019-05-09T01:53:34.528Z,13.05
2019-05-09T01:56:03.762Z,12.95
2019-05-09T01:58:34.250Z,12.75
2019-05-09T02:01:04.219Z,12.84
2019-05-09T02:03:33.644Z,12.72
2019-05-09T02:06:03.458Z,12.76
2019-05-09T02:08:34.182Z,12.86
2019-05-09T02:11:03.675Z,12.81
2019-05-09T02:13:33.646Z,12.76
2019-05-09T02:16:23.556Z,12.65
2019-05-09T02:18:57.032Z,12.72
2019-05-09T02:21:25.029Z,12.64
2019-05-09T02:23:53.711Z,12.77
2019-05-09T02:26:23.871Z,12.79
2019-05-09T02:28:53.639Z,12.75
2019-05-09T02:31:24.166Z,12.76
2019-05-09T02:33:53.856Z,12.82
2019-05-09T02:36:20.781Z,12.95
2019-05-09T02:38:48.985Z,12.97
2019-05-09T02:41:19.784Z,13.09
2019-05-09T02:43:49.656Z,13.23
2019-05-09T02:46:31.525Z,13.26
2019-05-09T02:48:59.657Z,13.12
2019-05-09T02:51:29.200Z,13.22
2019-05-09T02:53:58.599Z,13.27
2019-05-09T02:56:29.445Z,13.23
2019-05-09T02:59:03.429Z,13.26
2019-05-09T03:01:41.252Z,13.10
2019-05-09T03:04:09.032Z,13.06
2019-05-09T03:06:38.856Z,12.93
2019-05-09T03:09:08.964Z,12.90
2019-05-09T03:11:38.793Z,13.04
2019-05-09T03:14:09.155Z,13.00
2019-05-09T03:16:39.453Z,13.06
2019-05-09T03:19:08.739Z,13.13
2019-05-09T03:21:41.132Z,13.06
2019-05-09T03:24:10.058Z,13.00
2019-05-09T03:26:40.442Z,13.05
2019-05-09T03:29:43.016Z,12.93
2019-05-09T03:32:10.803Z,13.05
2019-05-09T03:34:38.611Z,13.09
2019-05-09T03:37:08.448Z,13.07
2019-05-09T03:39:37.743Z,13.12
2019-05-09T03:42:07.848Z,13.10
2019-05-09T03:44:35.676Z,13.06
2019-05-09T03:47:13.615Z,13.08
2019-05-09T03:49:41.472Z,13.12
2019-05-09T03:52:09.251Z,13.02
2019-05-09T03:54:39.946Z,13.06
2019-05-09T03:57:28.326Z,13.04
2019-05-09T03:59:57.300Z,12.99
2019-05-09T04:02:25.362Z,13.10
2019-05-09T04:04:53.136Z,12.99
2019-05-09T04:07:21.092Z,13.07
2019-05-09T04:09:49.134Z,13.08
2019-05-09T04:12:18.089Z,13.12
2019-05-09T04:14:47.940Z,13.12
2019-05-09T04:17:18.151Z,12.98
2019-05-09T04:19:47.875Z,13.01
2019-05-09T04:22:18.006Z,12.95
2019-05-09T04:24:47.413Z,13.04
2019-05-09T04:27:22.753Z,13.14
2019-05-09T04:29:50.708Z,13.10
2019-05-09T04:32:18.494Z,13.21
2019-05-09T04:34:47.288Z,13.20
2019-05-09T04:37:15.318Z,13.16
2019-05-09T04:39:43.128Z,13.14
2019-05-09T04:42:10.919Z,13.12
2019-05-09T04:44:57.556Z,13.23
2019-05-09T04:47:23.999Z,13.27
2019-05-09T04:49:52.850Z,13.22
2019-05-09T04:52:20.650Z,13.33
2019-05-09T04:54:48.683Z,13.30
2019-05-09T04:57:17.864Z,13.40
2019-05-09T04:59:47.522Z,13.48
2019-05-09T05:02:27.584Z,13.46
2019-05-09T05:04:55.373Z,13.48
2019-05-09T05:07:23.189Z,13.44
2019-05-09T05:09:51.127Z,13.65
2019-05-09T05:12:18.955Z,13.58
2019-05-09T05:14:47.619Z,13.68
2019-05-09T05:17:17.775Z,13.70
2019-05-09T05:19:47.444Z,13.77
2019-05-09T05:22:29.283Z,13.81
2019-05-09T05:25:00.025Z,13.98
2019-05-09T05:27:27.992Z,14.02
2019-05-09T05:29:58.093Z,13.99
2019-05-09T05:32:34.422Z,13.98
2019-05-09T05:35:07.745Z,14.09
2019-05-09T05:37:35.537Z,14.14
2019-05-09T05:40:04.234Z,14.17
2019-05-09T05:42:32.053Z,14.24
2019-05-09T05:44:59.846Z,14.21
2019-05-09T05:47:39.788Z,14.31
2019-05-09T05:50:08.426Z,14.42
2019-05-09T05:52:37.525Z,14.33
2019-05-09T05:55:07.546Z,14.40
2019-05-09T05:57:35.256Z,14.46
2019-05-09T06:00:03.305Z,14.56
2019-05-09T06:02:31.094Z,14.58
2019-05-09T06:04:58.914Z,14.60
2019-05-09T06:07:28.486Z,14.63
2019-05-09T06:09:57.565Z,14.67
2019-05-09T06:12:27.654Z,14.53
2019-05-09T06:14:55.308Z,14.46
2019-05-09T06:17:23.130Z,14.56
2019-05-09T06:19:50.925Z,14.66
2019-05-09T06:22:18.735Z,14.80
2019-05-09T06:24:47.888Z,14.83
2019-05-09T06:27:18.101Z,15.00
2019-05-09T06:29:47.719Z,15.08
2019-05-09T06:32:15.582Z,15.11
2019-05-09T06:34:43.393Z,15.12
2019-05-09T06:37:11.603Z,15.21
2019-05-09T06:39:39.413Z,15.41
2019-05-09T06:42:09.017Z,15.65
2019-05-09T06:45:07.594Z,15.85
2019-05-09T06:47:38.163Z,15.96
2019-05-09T06:50:08.266Z,16.18
2019-05-09T06:52:37.553Z,16.63
2019-05-09T06:55:08.459Z,17.06
2019-05-09T06:57:40.092Z,17.51
2019-05-09T07:00:10.686Z,18.19
2019-05-09T07:03:03.890Z,18.68
2019-05-09T07:05:49.695Z,19.10
2019-05-09T07:08:31.998Z,19.63
2019-05-09T07:10:59.908Z,20.06
2019-05-09T07:13:27.714Z,21.32
2019-05-09T07:15:55.786Z,22.58
2019-05-09T07:18:23.572Z,22.83
2019-05-09T07:20:51.437Z,22.55
2019-05-09T07:23:19.210Z,22.81
2019-05-09T07:26:17.486Z,23.40
2019-05-09T07:28:45.382Z,24.25
2019-05-09T07:31:38.546Z,24.00
2019-05-09T07:34:19.498Z,24.56
2019-05-09T07:36:47.735Z,23.75
2019-05-09T07:39:17.605Z,22.50
2019-05-09T07:41:47.715Z,22.41
2019-05-09T07:44:15.196Z,23.66
2019-05-09T07:46:50.175Z,24.70
2019-05-09T07:49:18.008Z,26.00
2019-05-09T07:51:47.755Z,27.50
2019-05-09T07:54:22.060Z,28.11
2019-05-09T07:56:45.505Z,28.16
2019-05-09T07:59:13.422Z,28.30
2019-05-09T08:01:41.183Z,27.82
2019-05-09T08:04:08.994Z,26.96
2019-05-09T08:06:37.989Z,28.10
2019-05-09T08:09:08.370Z,28.43
2019-05-09T08:11:37.684Z,28.91
2019-05-09T08:14:10.445Z,29.58
2019-05-09T08:16:37.780Z,29.53
2019-05-09T08:19:07.329Z,29.88
2019-05-09T08:21:34.839Z,30.49
2019-05-09T08:24:02.683Z,31.34
2019-05-09T08:26:30.505Z,31.62
2019-05-09T08:28:59.649Z,31.93
2019-05-09T08:31:28.188Z,31.21
2019-05-09T08:33:59.033Z,31.23
2019-05-09T08:36:28.003Z,31.40
2019-05-09T08:38:58.390Z,32.41
2019-05-09T08:41:25.479Z,34.40
2019-05-09T08:43:53.329Z,33.98
2019-05-09T08:46:21.121Z,32.57
2019-05-09T08:48:48.909Z,30.95
2019-05-09T08:52:05.979Z,31.78
2019-05-09T08:54:38.031Z,32.03
2019-05-09T08:57:07.666Z,33.06
2019-05-09T08:59:35.430Z,35.17
2019-05-09T09:02:15.294Z,37.15
2019-05-09T09:04:33.170Z,38.19
2019-05-09T09:07:01.029Z,36.69
2019-05-09T09:09:28.818Z,36.03
2019-05-09T09:11:58.311Z,35.60
2019-05-09T09:14:27.879Z,34.09
2019-05-09T09:16:57.568Z,31.02
2019-05-09T09:19:27.874Z,30.98
2019-05-09T09:21:59.622Z,30.31
2019-05-09T09:24:24.988Z,28.88
2019-05-09T09:26:52.802Z,28.53
2019-05-09T09:29:21.812Z,28.75
2019-05-09T09:31:49.596Z,28.26
2019-05-09T09:34:18.185Z,29.11
2019-05-09T09:36:48.070Z,32.35
2019-05-09T09:39:18.352Z,32.04
2019-05-09T09:41:48.145Z,34.55
2019-05-09T09:44:17.797Z,38.08
2019-05-09T09:46:44.990Z,37.06
2019-05-09T09:49:12.808Z,33.85
2019-05-09T09:51:40.636Z,33.64
2019-05-09T09:54:09.060Z,37.10
2019-05-09T09:56:38.638Z,39.46
2019-05-09T09:59:18.888Z,40.51
2019-05-09T10:01:47.823Z,41.78
2019-05-09T10:04:23.870Z,43.41
2019-05-09T10:06:48.222Z,38.97
2019-05-09T10:09:17.500Z,39.65
2019-05-09T10:11:48.124Z,41.41
2019-05-09T10:14:20.161Z,43.32
2019-05-09T10:17:10.510Z,43.82
2019-05-09T10:20:13.106Z,44.97
2019-05-09T10:22:46.340Z,46.16
2019-05-09T10:25:10.668Z,45.61
2019-05-09T10:27:38.770Z,45.09
2019-05-09T10:30:09.098Z,45.03
2019-05-09T10:32:38.341Z,45.32
2019-05-09T10:35:08.605Z,44.77
2019-05-09T10:37:39.287Z,45.41
2019-05-09T10:40:06.091Z,43.90
2019-05-09T10:43:02.319Z,44.94
2019-05-09T10:45:49.714Z,45.17
2019-05-09T10:48:23.799Z,45.75
2019-05-09T10:50:53.818Z,43.97
2019-05-09T10:53:18.013Z,43.15
2019-05-09T10:55:48.058Z,40.34
2019-05-09T10:58:15.644Z,39.15
2019-05-09T11:00:43.460Z,38.98
2019-05-09T11:03:11.304Z,36.25
2019-05-09T11:05:39.315Z,35.25
2019-05-09T11:08:08.206Z,38.28
2019-05-09T11:10:38.839Z,39.36
2019-05-09T11:13:07.571Z,39.82
2019-05-09T11:15:37.487Z,43.02
2019-05-09T11:18:07.901Z,44.76
2019-05-09T11:20:35.164Z,42.08
2019-05-09T11:23:02.966Z,38.10
2019-05-09T11:25:30.756Z,35.39
2019-05-09T11:28:09.921Z,35.75
2019-05-09T11:30:28.325Z,33.31
2019-05-09T11:32:56.188Z,32.34
2019-05-09T11:35:23.999Z,31.03
2019-05-09T11:37:51.816Z,29.95
2019-05-09T11:40:19.637Z,29.71
2019-05-09T11:42:48.256Z,28.96
2019-05-09T11:45:18.089Z,28.63
2019-05-09T11:47:46.716Z,27.89
2019-05-09T11:50:15.011Z,27.21
2019-05-09T11:52:42.823Z,32.30
2019-05-09T11:55:28.659Z,36.80
2019-05-09T11:57:40.390Z,35.28
2019-05-09T12:00:09.114Z,35.57
2019-05-09T12:02:38.530Z,39.28
2019-05-09T12:05:08.723Z,37.48
2019-05-09T12:07:37.933Z,33.56
2019-05-09T12:10:07.828Z,36.83
2019-05-09T12:12:38.841Z,39.59
2019-05-09T12:15:08.576Z,42.05
2019-05-09T12:17:50.963Z,42.36
2019-05-09T12:20:12.305Z,37.73
2019-05-09T12:22:36.344Z,32.91
2019-05-09T12:25:04.481Z,30.25
2019-05-09T12:27:32.381Z,28.80
2019-05-09T12:30:00.212Z,30.16
2019-05-09T12:32:28.479Z,35.33
2019-05-09T12:34:57.739Z,37.50
2019-05-09T12:37:27.999Z,38.63
2019-05-09T12:39:55.615Z,41.04
2019-05-09T12:42:23.426Z,42.72
2019-05-09T12:44:51.132Z,43.14
2019-05-09T12:47:19.259Z,43.40
2019-05-09T12:49:48.781Z,43.56
2019-05-09T12:52:18.572Z,43.45
2019-05-09T12:54:48.355Z,43.11
2019-05-09T12:57:18.920Z,43.63
2019-05-09T12:59:49.821Z,43.87
2019-05-09T13:02:17.755Z,42.71
2019-05-09T13:04:47.505Z,37.48
2019-05-09T13:07:15.147Z,33.15
2019-05-09T13:09:43.001Z,31.18
2019-05-09T13:12:11.030Z,34.23
2019-05-09T13:14:39.095Z,37.04
2019-05-09T13:17:13.504Z,38.78
2019-05-09T13:19:44.151Z,38.73
2019-05-09T13:22:11.967Z,35.87
2019-05-09T13:24:39.888Z,38.29
2019-05-09T13:27:08.081Z,38.54
2019-05-09T13:29:38.120Z,39.90
2019-05-09T13:32:05.802Z,40.02
2019-05-09T13:34:33.655Z,35.13
2019-05-09T13:37:01.445Z,35.50
2019-05-09T13:39:29.344Z,37.47
2019-05-09T13:41:58.307Z,39.99
2019-05-09T13:44:27.713Z,37.61
2019-05-09T13:46:58.225Z,34.25
2019-05-09T13:49:25.487Z,31.55
2019-05-09T13:52:00.377Z,30.97
2019-05-09T13:54:23.165Z,30.30
2019-05-09T13:56:57.583Z,32.51
2019-05-09T13:59:20.883Z,33.93
2019-05-09T14:01:48.842Z,34.17
2019-05-09T14:04:16.665Z,32.65
2019-05-09T14:06:44.521Z,30.05
2019-05-09T14:09:12.337Z,28.09
2019-05-09T14:11:40.270Z,26.88
2019-05-09T14:14:08.045Z,26.18
2019-05-09T14:16:38.782Z,25.63
2019-05-09T14:19:28.700Z,25.26
2019-05-09T14:21:35.316Z,24.86
2019-05-09T14:24:14.147Z,24.18
2019-05-09T14:26:32.896Z,23.83
2019-05-09T14:29:00.684Z,23.52
2019-05-09T14:31:32.257Z,23.17
2019-05-09T14:33:58.197Z,23.16
2019-05-09T14:36:27.729Z,23.30
2019-05-09T14:38:58.038Z,23.65
2019-05-09T14:41:27.624Z,23.62
2019-05-09T14:43:55.321Z,23.62
2019-05-09T14:46:23.585Z,23.58
2019-05-09T14:48:51.888Z,23.58
2019-05-09T14:51:19.886Z,23.55
2019-05-09T14:53:48.553Z,23.33
2019-05-09T14:56:16.575Z,23.31
2019-05-09T14:58:44.373Z,23.17
2019-05-09T15:01:12.331Z,23.25
2019-05-09T15:03:40.128Z,23.26
2019-05-09T15:06:07.943Z,23.12
2019-05-09T15:08:38.027Z,22.70
2019-05-09T15:11:08.656Z,22.40
2019-05-09T15:13:35.612Z,22.37
2019-05-09T15:16:08.727Z,22.44
2019-05-09T15:18:35.823Z,22.29
2019-05-09T15:21:04.058Z,22.37
2019-05-09T15:23:31.865Z,22.56
2019-05-09T15:25:59.660Z,22.57
2019-05-09T15:28:29.118Z,22.55
2019-05-09T15:30:59.370Z,22.43
2019-05-09T15:33:27.609Z,22.54
2019-05-09T15:35:55.540Z,22.33
2019-05-09T15:38:23.367Z,22.34
2019-05-09T15:40:51.159Z,22.21
2019-05-09T15:43:18.998Z,22.11
2019-05-09T15:45:53.366Z,21.92
2019-05-09T15:48:21.764Z,21.81
2019-05-09T15:50:49.612Z,21.67
2019-05-09T15:53:18.447Z,21.53
2019-05-09T15:55:48.069Z,21.48
2019-05-09T15:58:18.805Z,21.60
2019-05-09T16:00:47.807Z,21.86
2019-05-09T16:03:15.423Z,21.76
2019-05-09T16:05:43.240Z,21.82
2019-05-09T16:08:11.658Z,21.89
2019-05-09T16:10:39.625Z,22.21
2019-05-09T16:13:08.197Z,22.27
2019-05-09T16:15:38.189Z,22.31
2019-05-09T16:18:08.428Z,22.02
2019-05-09T16:20:38.465Z,21.89
2019-05-09T16:23:08.188Z,21.69
2019-05-09T16:25:35.032Z,21.53
2019-05-09T16:28:02.942Z,21.53
2019-05-09T16:30:30.721Z,21.57
2019-05-09T16:32:58.706Z,21.66
2019-05-09T16:35:28.630Z,21.55
2019-05-09T16:38:05.283Z,21.43
2019-05-09T16:40:27.971Z,21.16
2019-05-09T16:42:58.091Z,20.90
2019-05-09T16:45:25.875Z,20.61
2019-05-09T16:47:53.658Z,20.33
2019-05-09T16:50:21.789Z,19.98
2019-05-09T16:52:49.625Z,19.72
2019-05-09T16:55:22.611Z,19.47
2019-05-09T16:57:50.442Z,19.30
2019-05-09T17:00:38.259Z,19.18
2019-05-09T17:03:08.007Z,18.92
2019-05-09T17:05:37.419Z,19.17
2019-05-09T17:08:05.375Z,18.97
2019-05-09T17:10:33.202Z,18.87
2019-05-09T17:13:00.999Z,18.82
2019-05-09T17:15:29.339Z,18.88
2019-05-09T17:17:57.266Z,19.00
2019-05-09T17:20:30.965Z,18.84
2019-05-09T17:23:15.219Z,18.96
2019-05-09T17:25:43.274Z,19.01
2019-05-09T17:28:11.176Z,18.99
2019-05-09T17:30:39.141Z,18.84
2019-05-09T17:33:07.881Z,18.81
2019-05-09T17:35:35.837Z,18.81
2019-05-09T17:38:03.642Z,18.67
2019-05-09T17:40:31.436Z,18.52
2019-05-09T17:42:59.502Z,18.49
2019-05-09T17:45:27.347Z,18.30
2019-05-09T17:47:55.127Z,18.35
2019-05-09T17:50:22.922Z,18.23
2019-05-09T17:52:50.768Z,18.08
2019-05-09T17:55:18.560Z,17.98
2019-05-09T17:57:47.950Z,17.98
2019-05-09T18:00:21.676Z,18.03
2019-05-09T18:02:48.616Z,17.80
2019-05-09T18:05:16.678Z,17.72
2019-05-09T18:07:44.463Z,17.75
2019-05-09T18:10:13.917Z,17.84
2019-05-09T18:12:41.722Z,17.81
2019-05-09T18:15:10.069Z,17.59
2019-05-09T18:17:38.368Z,17.61
2019-05-09T18:20:08.060Z,17.63
2019-05-09T18:22:35.992Z,17.60
2019-05-09T18:25:04.787Z,17.53
2019-05-09T18:27:32.595Z,17.50
2019-05-09T18:30:00.457Z,17.50
2019-05-09T18:32:40.325Z,17.39
2019-05-09T18:35:16.513Z,17.34
2019-05-09T18:37:44.344Z,17.27
2019-05-09T18:40:12.139Z,17.13
2019-05-09T18:42:39.968Z,16.99
2019-05-09T18:45:08.824Z,17.06
2019-05-09T18:47:36.658Z,17.03
2019-05-09T18:50:05.558Z,17.05
2019-05-09T18:52:33.371Z,17.14
2019-05-09T18:55:01.182Z,17.12
2019-05-09T18:57:29.053Z,17.04
2019-05-09T18:59:56.861Z,16.95
2019-05-09T19:02:24.743Z,16.89
2019-05-09T19:04:52.546Z,16.93
2019-05-09T19:07:22.778Z,16.87
2019-05-09T19:09:50.058Z,16.70
2019-05-09T19:12:18.033Z,16.66
2019-05-09T19:14:47.190Z,16.55
2019-05-09T19:17:40.650Z,16.53
2019-05-09T19:20:34.408Z,16.48
2019-05-09T19:23:02.329Z,16.37
2019-05-09T19:25:30.653Z,16.34
2019-05-09T19:27:58.449Z,16.27
2019-05-09T19:30:26.352Z,16.28
2019-05-09T19:32:54.176Z,16.23
2019-05-09T19:35:22.054Z,16.25
2019-05-09T19:37:49.929Z,16.27
2019-05-09T19:40:20.141Z,16.29
2019-05-09T19:42:47.496Z,16.36
2019-05-09T19:45:15.625Z,16.39
2019-05-09T19:47:43.464Z,16.54
2019-05-09T19:50:11.710Z,16.61
2019-05-09T19:52:39.599Z,16.55
2019-05-09T19:55:07.533Z,16.49
2019-05-09T19:57:35.387Z,16.60
2019-05-09T20:00:03.684Z,16.52
2019-05-09T20:02:32.339Z,16.36
2019-05-09T20:05:00.171Z,16.34
2019-05-09T20:07:28.014Z,16.25
2019-05-09T20:10:02.601Z,16.24
2019-05-09T20:12:40.342Z,16.24
2019-05-09T20:15:10.067Z,16.30
2019-05-09T20:17:37.862Z,16.11
2019-05-09T20:20:06.348Z,16.18
2019-05-09T20:22:34.191Z,16.14
2019-05-09T20:25:02.016Z,16.04
2019-05-09T20:27:29.830Z,15.92
2019-05-09T20:29:57.657Z,15.89
2019-05-09T20:32:25.514Z,15.83
2019-05-09T20:34:53.334Z,15.89
2019-05-09T20:37:21.120Z,15.84
2019-05-09T20:39:49.073Z,15.81
2019-05-09T20:42:16.926Z,15.74
2019-05-09T20:44:44.797Z,15.70
2019-05-09T20:47:12.616Z,15.69
2019-05-09T20:49:41.214Z,15.65
2019-05-09T20:52:09.101Z,15.78
2019-05-09T20:54:37.007Z,15.62
2019-05-09T20:57:04.767Z,15.64
2019-05-09T20:59:32.572Z,15.64
2019-05-09T21:02:00.431Z,15.67
2019-05-09T21:04:28.319Z,15.58
2019-05-09T21:06:56.277Z,15.56
2019-05-09T21:09:24.342Z,15.61
2019-05-09T21:11:52.161Z,15.46
2019-05-09T21:14:19.974Z,15.39
2019-05-09T21:16:47.809Z,15.42
2019-05-09T21:19:15.663Z,15.46
2019-05-09T21:21:43.535Z,15.56
2019-05-09T21:24:11.447Z,15.59
2019-05-09T21:26:39.238Z,15.47
2019-05-09T21:29:07.052Z,15.61
2019-05-09T21:31:34.851Z,15.42
2019-05-09T21:34:02.821Z,15.34
2019-05-09T21:36:30.629Z,15.31
2019-05-09T21:38:58.392Z,15.19
2019-05-09T21:41:26.216Z,15.20
2019-05-09T21:43:54.210Z,15.12
2019-05-09T21:46:22.098Z,15.12
2019-05-09T21:48:49.884Z,15.04
2019-05-09T21:51:17.715Z,15.06
2019-05-09T21:53:45.594Z,15.00
2019-05-09T21:56:13.443Z,14.95
2019-05-09T21:58:41.237Z,14.93
2019-05-09T22:01:15.646Z,14.92
2019-05-09T22:03:43.541Z,14.92
2019-05-09T22:06:11.475Z,14.95
2019-05-09T22:08:39.425Z,14.81
2019-05-09T22:11:07.245Z,14.85
2019-05-09T22:13:35.035Z,14.72
2019-05-09T22:16:03.093Z,14.62
2019-05-09T22:18:30.886Z,14.61
2019-05-09T22:20:58.713Z,14.57
2019-05-09T22:23:26.807Z,14.65
2019-05-09T22:25:54.659Z,14.59
2019-05-09T22:28:22.424Z,14.50
2019-05-09T22:30:50.420Z,14.45
2019-05-09T22:33:18.198Z,14.45
2019-05-09T22:35:46.006Z,14.51
2019-05-09T22:38:13.853Z,14.39
2019-05-09T22:40:41.688Z,14.38
2019-05-09T22:43:09.531Z,14.25
2019-05-09T22:45:37.636Z,14.23
2019-05-09T22:48:05.438Z,14.23
2019-05-09T22:50:33.235Z,14.14
2019-05-09T22:53:01.039Z,14.09
2019-05-09T22:55:28.899Z,13.99
2019-05-09T22:57:56.719Z,14.02
2019-05-09T23:00:24.677Z,13.99
2019-05-09T23:02:52.594Z,13.97
2019-05-09T23:05:20.354Z,13.93
2019-05-09T23:07:48.167Z,13.96
2019-05-09T23:10:16.269Z,14.05
2019-05-09T23:12:44.090Z,14.03
2019-05-09T23:15:16.220Z,14.06
2019-05-09T23:17:44.194Z,14.07
2019-05-09T23:20:33.362Z,14.08
2019-05-09T23:23:22.376Z,14.11
2019-05-09T23:25:50.572Z,14.07
2019-05-09T23:28:21.475Z,14.11
2019-05-09T23:30:51.866Z,14.06
2019-05-09T23:33:20.857Z,14.11
2019-05-09T23:35:50.722Z,14.14
2019-05-09T23:38:18.758Z,14.05
2019-05-09T23:40:46.979Z,13.98
2019-05-09T23:43:14.766Z,13.96
2019-05-09T23:45:44.108Z,14.00
2019-05-09T23:48:13.573Z,13.97
2019-05-09T23:50:41.555Z,14.04
2019-05-09T23:53:09.653Z,14.00
2019-05-09T23:55:59.659Z,14.02
2019-05-09T23:58:45.707Z,14.08
